Latest Weather Observations for Casey*

IDT60801

Issued at 11:05 pm EST Tuesday 22 July 2014 (issued every 30 minutes, with the page automatically refreshed every 10 minutes)

About weather observations | Map of weather stations | Latest weather observations for ANT | Other Formats
Station Details ID: 300017 Name: CASEY Lat: -66.28 Lon: 110.52 Height: 40.0 m
Data from the previous 72 hours. | See also: Recent months at Casey*
Date/Time
EST
Temp
°C
App
Temp
°C
Dew
Point
Rel
Hum
%
Delta-T
°C
Wind Press
QNH
hPa
Press
MSL
hPa
Rain
since 9 am
mm
Dir
 
Spd
km/h
Gust
km/h
Spd
kts
Gust
kts
22/11:00pm -18.4 -24.6 -23.2 66 - S 13 15 7 8 988.8 - -
22/10:30pm -17.2 -22.2 -22.9 61 - SW 7 9 4 5 988.7 - -
22/10:00pm -14.8 -20.9 -21.6 56 - NE 13 17 7 9 988.4 988.9 -
22/09:30pm -14.4 -22.2 -21.6 54 - ENE 22 26 12 14 988.3 - -
22/09:00pm -15.5 -21.6 -22.0 57 - NNE 13 22 7 12 988.1 - -
22/08:30pm -14.5 -19.8 -20.9 58 - NNE 9 13 5 7 988.1 - -
22/08:00pm -15.5 -21.6 -21.7 59 - N 13 17 7 9 988.0 - -
22/07:30pm -14.4 -20.9 -20.6 59 - NE 15 19 8 10 988.1 - -
22/07:00pm -14.6 -20.7 -20.4 61 - NE 13 15 7 8 988.0 988.5 -
22/06:30pm -13.8 -19.1 -20.1 59 - NNE 9 13 5 7 988.0 - -
22/06:00pm -13.9 -19.6 -19.6 62 - ENE 11 15 6 8 987.9 - -
22/05:30pm -13.0 -18.3 -19.3 59 - ESE 9 11 5 6 988.0 - -
22/05:00pm -13.5 -19.9 -19.0 63 - E 15 20 8 11 988.2 - -
22/04:30pm -13.0 -18.6 -18.7 62 - E 11 17 6 9 988.2 - -
22/04:00pm -13.9 -18.8 -18.5 68 - SE 7 9 4 5 988.4 988.9 -
22/03:30pm -13.7 -18.6 -18.3 68 - SSE 7 9 4 5 988.4 - -
22/03:00pm -13.3 -16.8 -18.3 66 - CALM 0 0 0 0 988.7 - -
22/02:30pm -13.1 -16.6 -18.1 66 - CALM 0 0 0 0 988.8 - -
22/02:00pm -13.4 -18.1 -18.5 65 - ESE 6 7 3 4 989.0 - -
22/01:30pm -13.6 -19.6 -18.6 66 - SE 13 15 7 8 988.8 - -
22/01:00pm -13.9 -19.5 -18.8 66 - SSE 11 13 6 7 988.7 989.2 -
22/12:30pm -12.5 -18.1 -18.4 61 - SE 11 13 6 7 988.7 - -
22/12:00pm -13.5 -19.1 -18.6 65 - ESE 11 13 6 7 988.8 - -
22/11:30am -12.7 -17.9 -17.9 65 - E 9 13 5 7 989.1 - -
22/11:00am -12.7 -18.3 -17.5 67 - E 11 13 6 7 989.2 - -
22/10:30am -12.0 -16.8 -17.0 66 - ENE 7 9 4 5 989.3 - -
22/10:00am -12.3 -17.5 -17.0 68 - ESE 9 9 5 5 989.3 989.8 -
22/09:30am -12.0 -15.5 -17.6 63 - CALM 0 0 0 0 989.2 - -
22/09:00am -12.8 -17.4 -17.3 69 - ENE 6 9 3 5 989.2 - -
22/08:30am -12.7 -17.3 -17.3 68 - E 6 7 3 4 989.0 - -
22/08:00am -12.6 -16.1 -18.0 64 - CALM 0 2 0 1 989.0 - -
22/07:30am -13.0 -17.9 -18.3 64 - SE 7 9 4 5 988.9 - -
22/07:00am -12.5 -17.4 -18.4 61 - S 7 9 4 5 988.4 988.9 -
22/06:30am -13.7 -17.2 -19.0 64 - CALM 0 0 0 0 988.4 - -
22/06:00am -13.5 -17.1 -19.4 61 - CALM 0 0 0 0 988.0 - -
22/05:30am -12.3 -15.9 -19.2 56 - CALM 0 4 0 2 987.8 - -
22/05:00am -13.3 -18.2 -19.2 61 - ENE 7 9 4 5 987.7 - -
22/04:30am -13.7 -18.6 -18.8 65 - SSE 7 11 4 6 987.5 - -
22/04:00am -14.3 -19.0 -19.2 66 - SSW 6 9 3 5 987.2 987.7 -
22/03:30am -14.0 -17.9 -18.9 66 - N 2 9 1 5 986.8 - -
22/03:00am -14.2 -18.9 -19.1 66 - NNE 6 9 3 5 986.5 - -
22/02:30am -13.4 -18.3 -18.7 64 - NNE 7 9 4 5 986.1 - -
22/02:00am -13.3 -18.6 -18.8 63 - NNE 9 11 5 6 985.7 - -
22/01:30am -13.3 -18.9 -19.2 61 - NE 11 17 6 9 985.3 - -
22/01:00am -13.6 -18.5 -19.3 62 - NNE 7 9 4 5 985.2 985.7 -
22/12:30am -13.7 -18.6 -19.4 62 - NE 7 9 4 5 984.9 - -
22/12:00am -15.2 -20.2 -21.4 59 - ESE 7 11 4 6 984.4 - -
 
Date/Time
EST
Temp
°C
App
Temp
°C
Dew
Point
Rel
Hum
%
Delta-T
°C
Wind Press
QNH
hPa
Press
MSL
hPa
Rain
since 9 am
mm
Dir
 
Spd
km/h
Gust
km/h
Spd
kts
Gust
kts
21/11:30pm -14.2 -19.1 -20.2 60 - SE 7 11 4 6 984.0 - -
21/11:00pm -14.6 -19.9 -21.0 58 - SSE 9 11 5 6 983.6 - -
21/10:30pm -14.8 -19.6 -21.0 59 - SSE 6 7 3 4 983.3 - -
21/10:00pm -15.0 -20.0 -21.6 57 - S 7 11 4 6 982.8 983.4 -
21/09:30pm -16.1 -21.1 -22.0 60 - SSE 7 9 4 5 982.2 - -
21/09:00pm -16.7 -21.7 -22.4 61 - ESE 7 9 4 5 981.8 - -
21/08:30pm -17.3 -21.0 -22.6 63 - CALM 0 0 0 0 981.7 - -
21/08:00pm -18.3 -22.4 -23.9 61 - SE 2 7 1 4 981.3 - -
21/07:30pm -18.6 -24.0 -23.3 66 - NE 9 11 5 6 980.8 - -
21/07:00pm -18.2 -23.2 -23.1 65 - N 7 9 4 5 980.3 980.9 -
21/06:30pm -18.8 -23.8 -23.7 65 - N 7 9 4 5 979.9 - -
21/06:00pm -18.3 -23.1 -23.9 61 - N 6 7 3 4 979.4 - -
21/05:30pm -18.0 -23.4 -23.1 64 - E 9 17 5 9 979.0 - -
21/05:00pm -18.7 -23.7 -24.0 63 - NNE 7 11 4 6 978.7 - -
21/04:30pm -18.0 -23.0 -24.0 59 - NE 7 9 4 5 978.2 - -
21/04:00pm -17.0 -22.0 -23.1 59 - NNE 7 11 4 6 978.1 978.6 -
21/03:30pm -17.6 -23.0 -23.5 60 - NE 9 13 5 7 977.8 - -
21/03:00pm -18.1 -23.1 -23.4 63 - NE 7 11 4 6 977.5 - -
21/02:30pm -18.7 -23.7 -24.1 62 - ENE 7 11 4 6 977.2 - -
21/02:00pm -15.9 -20.7 -21.8 60 - E 6 7 3 4 977.1 - -
21/01:30pm -16.2 -21.2 -21.2 65 - E 7 11 4 6 976.9 - -
21/01:00pm -17.8 -23.5 -21.9 70 - ENE 11 15 6 8 976.5 977.0 -
21/12:30pm -18.9 -25.1 -23.3 68 - NE 13 15 7 8 976.2 - -
21/12:00pm -17.9 -24.4 -23.2 63 - NE 15 15 8 8 976.2 - -
21/11:30am -18.0 -23.8 -22.6 67 - NE 11 15 6 8 976.0 - -
21/11:00am -18.3 -24.1 -23.1 66 - NE 11 13 6 7 975.7 - -
21/10:30am -18.0 -23.8 -22.3 69 - NE 11 13 6 7 975.3 - -
21/10:00am -18.5 -23.9 -23.1 67 - N 9 11 5 6 974.9 975.4 -
21/09:30am -17.8 -23.2 -22.6 66 - N 9 11 5 6 974.7 - -
21/09:00am -18.1 -23.9 -24.1 59 - NE 11 13 6 7 974.6 - -
21/08:30am -17.2 -22.2 -22.7 62 - ENE 7 9 4 5 974.3 - -
21/08:00am -16.8 -21.8 -22.5 61 - ENE 7 9 4 5 974.1 - -
21/07:30am -17.6 -23.8 -23.1 62 - E 13 19 7 10 973.7 - -
21/07:00am -16.9 -23.4 -21.9 65 - ESE 15 19 8 10 973.4 973.9 -
21/06:30am -18.2 -24.0 -23.3 64 - SE 11 17 6 9 973.4 - -
21/06:00am -17.4 -24.3 -23.3 60 - ESE 17 20 9 11 973.1 - -
21/05:30am -15.6 -21.7 -21.9 58 - E 13 15 7 8 972.9 - -
21/05:00am -15.4 -21.1 -21.8 58 - ESE 11 13 6 7 972.7 - -
21/04:30am -15.4 -20.7 -21.4 60 - ESE 9 11 5 6 972.6 - -
21/04:00am -16.0 -21.4 -22.5 57 - NE 9 13 5 7 972.5 973.0 -
21/03:30am -15.6 -20.6 -23.8 49 - NE 7 9 4 5 972.2 - -
21/03:00am -17.1 -21.2 -24.6 52 - ESE 2 7 1 4 972.0 - -
21/02:30am -16.2 -21.0 -23.5 53 - E 6 6 3 3 971.9 - -
21/02:00am -16.7 -22.1 -23.4 56 - E 9 9 5 5 971.9 - -
21/01:30am -17.8 -22.7 -24.2 57 - N 6 9 3 5 971.9 - -
21/01:00am -17.4 -22.2 -23.6 58 - N 6 9 3 5 971.6 972.1 -
21/12:30am -17.0 -22.4 -23.9 55 - ENE 9 13 5 7 971.2 - -
21/12:00am -17.4 -23.2 -22.9 62 - ESE 11 13 6 7 971.1 - -
 
Date/Time
EST
Temp
°C
App
Temp
°C
Dew
Point
Rel
Hum
%
Delta-T
°C
Wind Press
QNH
hPa
Press
MSL
hPa
Rain
since 9 am
mm
Dir
 
Spd
km/h
Gust
km/h
Spd
kts
Gust
kts
20/11:30pm -20.3 -26.9 -25.5 63 - SSE 15 17 8 9 971.1 - -
20/11:00pm -20.2 -24.7 -25.9 60 - SSE 4 7 2 4 971.0 - -
20/10:30pm -17.9 -23.3 -24.5 56 - NNE 9 9 5 5 970.8 - -
20/10:00pm -18.5 -24.3 -24.7 58 - NE 11 15 6 8 970.7 971.2 -
20/09:30pm -18.7 -24.1 -25.1 57 - NNE 9 11 5 6 970.8 - -
20/09:00pm -19.6 -25.0 -25.0 62 - SE 9 11 5 6 970.6 - -
20/08:30pm -20.3 -27.3 -25.3 64 - SSE 17 20 9 11 970.6 - -
20/08:00pm -21.0 -28.4 -25.6 66 - S 19 20 10 11 970.5 - -
20/07:30pm -20.1 -27.1 -25.3 63 - SSE 17 19 9 10 970.5 - -
20/07:00pm -20.9 -28.3 -25.9 64 - S 19 20 10 11 970.6 971.1 -
20/06:30pm -18.2 -24.0 -25.4 53 - E 11 17 6 9 970.5 - -
20/06:00pm -20.1 -27.6 -24.9 65 - SSE 20 26 11 14 970.5 - -
20/05:30pm -19.4 -25.2 -25.2 60 - S 11 20 6 11 970.6 - -
20/05:00pm -18.1 -24.3 -24.7 56 - SSE 13 17 7 9 970.5 - -
20/04:30pm -18.5 -25.8 -24.7 58 - SSE 19 26 10 14 970.7 - -
20/04:00pm -20.0 -28.3 -24.0 70 - SSE 24 26 13 14 970.7 971.2 -
20/03:30pm -19.8 -28.4 -23.4 73 - SSE 26 32 14 17 971.1 - -
20/03:00pm -19.4 -27.3 -23.3 71 - SSE 22 24 12 13 971.2 - -
20/02:30pm -19.5 -26.8 -23.6 70 - SSE 19 20 10 11 971.2 - -
20/02:00pm -19.0 -25.9 -23.2 69 - S 17 20 9 11 971.3 - -
20/01:30pm -16.3 -22.1 -23.4 54 - E 11 15 6 8 971.2 - -
20/01:00pm -20.0 -27.5 -23.4 74 - S 20 24 11 13 971.3 971.8 -
20/12:30pm -18.5 -26.0 -22.6 70 - S 20 24 11 13 971.4 - -
20/12:00pm -18.6 -26.1 -22.5 71 - S 20 26 11 14 971.6 - -
20/11:30am -18.2 -27.2 -21.8 73 - S 28 33 15 18 972.1 - -
20/11:00am -18.4 -27.0 -22.3 71 - S 26 33 14 18 972.3 - -
20/10:30am -17.5 -25.7 -22.1 67 - SSE 24 41 13 22 972.3 - -
20/10:00am -18.3 -28.2 -21.9 73 - S 33 43 18 23 972.9 973.4 -
20/09:30am -17.9 -26.1 -22.5 67 - SSE 24 33 13 18 973.4 - -
20/09:00am -19.3 -27.9 -23.4 70 - S 26 32 14 17 974.2 - -
20/08:30am -18.9 -28.7 -23.1 69 - SSE 32 35 17 19 974.5 - -
20/08:16am -18.2 -28.5 -22.6 68 - SSE 35 39 19 21 974.9 - -
20/08:00am -17.8 -24.0 -23.6 60 - SSE 13 19 7 10 975.1 - -
20/07:30am -19.1 -25.3 -23.8 66 - S 13 19 7 10 975.7 - -
20/07:00am -19.4 -27.3 -24.3 65 - S 22 26 12 14 976.4 976.9 -
20/06:30am -19.9 -27.8 -24.9 64 - S 22 28 12 15 977.2 - -
20/06:00am -20.5 -27.1 -25.0 67 - S 15 20 8 11 977.9 - -
20/05:30am -19.7 -26.3 -24.4 66 - S 15 20 8 11 978.7 - -
20/05:00am -20.5 -27.1 -25.2 66 - SSE 15 19 8 10 979.5 - -
20/04:30am -20.0 -26.6 -24.7 66 - S 15 20 8 11 980.1 - -
20/04:00am -20.4 -27.4 -25.4 64 - S 17 20 9 11 980.7 981.3 -
20/03:30am -20.6 -28.1 -25.3 66 - SSE 20 24 11 13 981.5 - -
20/03:00am -21.3 -29.2 -25.9 66 - SSE 22 26 12 14 982.1 - -
20/02:30am -21.1 -27.7 -25.6 67 - S 15 17 8 9 983.2 - -
20/02:00am -20.8 -26.3 -25.3 67 - SSE 9 15 5 8 984.4 - -
20/01:30am -21.3 -28.8 -25.6 68 - S 20 24 11 13 985.3 - -

Other Formats:

Comma delimited format used in spreadsheet applications
http://www.bom.gov.au/fwo/IDT60803/IDT60803.89611.axf

JavaScript Object Notation format (JSON) in row-major order
http://www.bom.gov.au/fwo/IDT60803/IDT60803.89611.json